createdAt,value
2018-09-23T00:01:59.530Z,33.33
2018-09-23T00:04:32.163Z,25.87
2018-09-23T00:07:04.543Z,24.40
2018-09-23T00:09:37.009Z,30.70
2018-09-23T00:12:09.589Z,21.97
2018-09-23T00:14:42.118Z,15.93
2018-09-23T00:17:14.608Z,16.30
2018-09-23T00:19:50.367Z,23.30
2018-09-23T00:22:23.217Z,26.10
2018-09-23T00:24:56.079Z,41.87
2018-09-23T00:27:28.823Z,43.27
2018-09-23T00:30:01.614Z,48.48
2018-09-23T00:32:34.294Z,107.70
2018-09-23T00:35:06.977Z,120.40
2018-09-23T00:37:39.423Z,87.57
2018-09-23T00:40:24.544Z,40.57
2018-09-23T00:43:06.354Z,24.70
2018-09-23T00:45:53.056Z,10.80
2018-09-23T00:48:36.036Z,12.67
2018-09-23T00:51:27.669Z,12.07
2018-09-23T00:54:07.377Z,14.80
2018-09-23T00:56:48.573Z,14.60
2018-09-23T00:59:23.210Z,13.63
2018-09-23T01:02:02.563Z,13.37
2018-09-23T01:04:43.120Z,8.20
2018-09-23T01:10:01.011Z,7.77
2018-09-23T01:12:33.705Z,8.90
2018-09-23T01:15:06.271Z,17.27
2018-09-23T01:17:38.907Z,7.97
2018-09-23T01:20:11.495Z,8.10
2018-09-23T01:22:46.791Z,6.80
2018-09-23T01:25:19.232Z,7.20
2018-09-23T01:27:51.671Z,6.67
2018-09-23T01:30:25.899Z,6.33
2018-09-23T01:32:58.403Z,7.23
2018-09-23T01:35:31.209Z,6.03
2018-09-23T01:38:03.717Z,9.50
2018-09-23T01:40:36.245Z,8.90
2018-09-23T01:43:09.035Z,6.80
2018-09-23T01:45:41.565Z,6.47
2018-09-23T01:48:14.452Z,8.30
2018-09-23T01:50:46.898Z,7.97
2018-09-23T01:53:19.645Z,8.83
2018-09-23T01:55:52.661Z,8.40
2018-09-23T01:58:25.211Z,9.87
2018-09-23T02:00:58.219Z,8.87
2018-09-23T02:03:30.706Z,7.20
2018-09-23T02:06:03.592Z,10.67
2018-09-23T02:08:36.308Z,6.70
2018-09-23T02:11:08.738Z,9.17
2018-09-23T02:13:41.333Z,10.07
2018-09-23T02:16:13.864Z,8.03
2018-09-23T02:18:46.269Z,7.23
2018-09-23T02:21:19.247Z,8.20
2018-09-23T02:23:51.999Z,6.80
2018-09-23T02:26:24.467Z,5.50
2018-09-23T02:28:56.857Z,6.87
2018-09-23T02:31:29.303Z,7.97
2018-09-23T02:34:01.736Z,7.33
2018-09-23T02:36:34.258Z,7.70
2018-09-23T02:39:06.987Z,9.35
2018-09-23T02:41:39.487Z,7.90
2018-09-23T02:44:12.419Z,7.87
2018-09-23T02:46:45.014Z,7.73
2018-09-23T02:49:18.490Z,8.13
2018-09-23T02:51:51.087Z,7.70
2018-09-23T02:54:24.212Z,7.57
2018-09-23T02:56:56.953Z,8.40
2018-09-23T02:59:33.012Z,7.67
2018-09-23T03:02:06.191Z,6.90
2018-09-23T03:04:39.085Z,7.77
2018-09-23T03:07:11.840Z,9.13
2018-09-23T03:09:44.330Z,8.47
2018-09-23T03:12:19.112Z,8.93
2018-09-23T03:14:51.607Z,8.43
2018-09-23T03:17:24.315Z,6.20
2018-09-23T03:19:56.858Z,5.80
2018-09-23T03:22:29.352Z,9.15
2018-09-23T03:25:01.793Z,7.23
2018-09-23T03:27:34.812Z,5.58
2018-09-23T03:30:07.311Z,5.87
2018-09-23T03:32:39.760Z,8.83
2018-09-23T03:35:12.380Z,6.30
2018-09-23T03:37:45.043Z,6.00
2018-09-23T03:40:18.591Z,5.43
2018-09-23T03:42:51.337Z,5.70
2018-09-23T03:45:24.041Z,5.37
2018-09-23T03:47:56.614Z,6.87
2018-09-23T03:50:29.277Z,5.43
2018-09-23T03:53:01.805Z,15.50
2018-09-23T03:55:36.079Z,4.70
2018-09-23T03:58:10.369Z,4.67
2018-09-23T04:00:43.065Z,4.70
2018-09-23T04:03:15.513Z,4.33
2018-09-23T04:05:48.002Z,5.47
2018-09-23T04:08:20.706Z,5.67
2018-09-23T04:10:53.736Z,6.10
2018-09-23T04:13:27.089Z,6.23
2018-09-23T04:15:59.966Z,6.10
2018-09-23T04:18:32.536Z,5.47
2018-09-23T04:21:05.222Z,5.60
2018-09-23T04:23:37.759Z,5.30
2018-09-23T04:26:11.231Z,5.97
2018-09-23T04:28:44.727Z,6.20
2018-09-23T04:31:17.255Z,9.80
2018-09-23T04:33:50.359Z,6.83
2018-09-23T04:36:22.915Z,6.43
2018-09-23T04:38:55.608Z,6.10
2018-09-23T04:41:28.421Z,7.45
2018-09-23T04:44:01.155Z,6.20
2018-09-23T04:46:33.644Z,5.50
2018-09-23T04:49:06.113Z,5.33
2018-09-23T04:51:38.831Z,5.67
2018-09-23T04:54:12.754Z,5.93
2018-09-23T04:56:45.537Z,6.17
2018-09-23T04:59:21.648Z,7.30
2018-09-23T05:01:57.501Z,6.47
2018-09-23T05:04:31.771Z,6.47
2018-09-23T05:07:04.354Z,5.80
2018-09-23T05:09:36.963Z,6.03
2018-09-23T05:12:09.403Z,5.97
2018-09-23T05:14:42.190Z,6.53
2018-09-23T05:17:14.749Z,7.40
2018-09-23T05:19:47.757Z,7.00
2018-09-23T05:22:20.247Z,8.20
2018-09-23T05:24:52.768Z,7.47
2018-09-23T05:27:25.963Z,7.97
2018-09-23T05:29:58.521Z,7.70
2018-09-23T05:32:31.896Z,7.90
2018-09-23T05:35:04.461Z,8.17
2018-09-23T05:37:39.059Z,8.58
2018-09-23T05:40:12.168Z,7.70
2018-09-23T05:42:45.179Z,7.73
2018-09-23T05:45:18.645Z,7.57
2018-09-23T05:47:51.131Z,7.10
2018-09-23T05:50:24.257Z,7.23
2018-09-23T05:52:56.997Z,8.85
2018-09-23T05:55:30.017Z,7.57
2018-09-23T05:58:02.730Z,7.27
2018-09-23T06:00:44.664Z,7.87
2018-09-23T06:03:17.349Z,7.43
2018-09-23T06:05:57.131Z,6.50
2018-09-23T06:08:30.598Z,8.03
2018-09-23T06:11:03.248Z,7.90
2018-09-23T06:13:35.923Z,6.53
2018-09-23T06:16:08.188Z,7.60
2018-09-23T06:18:40.716Z,7.30
2018-09-23T06:21:13.250Z,7.43
2018-09-23T06:23:45.681Z,8.57
2018-09-23T06:26:18.169Z,7.40
2018-09-23T06:28:50.627Z,8.27
2018-09-23T06:31:23.086Z,6.80
2018-09-23T06:33:55.484Z,7.43
2018-09-23T06:36:27.966Z,7.30
2018-09-23T06:39:00.563Z,7.20
2018-09-23T06:41:33.112Z,5.87
2018-09-23T06:44:05.718Z,6.50
2018-09-23T06:46:38.295Z,6.67
2018-09-23T06:49:10.768Z,6.77
2018-09-23T06:51:43.549Z,8.48
2018-09-23T06:54:16.118Z,7.20
2018-09-23T06:56:48.902Z,6.73
2018-09-23T06:59:21.770Z,6.10
2018-09-23T07:01:54.190Z,6.20
2018-09-23T07:04:27.104Z,6.13
2018-09-23T07:06:59.780Z,7.40
2018-09-23T07:09:32.264Z,6.90
2018-09-23T07:12:04.964Z,6.30
2018-09-23T07:14:37.741Z,7.00
2018-09-23T07:17:10.415Z,7.67
2018-09-23T07:19:43.140Z,7.30
2018-09-23T07:22:15.771Z,7.00
2018-09-23T07:24:48.262Z,7.60
2018-09-23T07:27:21.175Z,8.18
2018-09-23T07:29:55.044Z,6.30
2018-09-23T07:32:27.702Z,6.70
2018-09-23T07:35:00.222Z,5.80
2018-09-23T07:37:33.158Z,6.40
2018-09-23T07:40:05.820Z,6.90
2018-09-23T07:42:38.684Z,8.38
2018-09-23T07:45:11.401Z,6.90
2018-09-23T07:47:43.977Z,7.00
2018-09-23T07:50:16.648Z,8.30
2018-09-23T07:52:49.437Z,8.17
2018-09-23T07:55:21.912Z,7.87
2018-09-23T07:57:54.768Z,8.87
2018-09-23T08:00:28.041Z,8.53
2018-09-23T08:03:00.523Z,7.50
2018-09-23T08:05:38.910Z,7.37
2018-09-23T08:08:11.429Z,7.60
2018-09-23T08:10:44.038Z,7.87
2018-09-23T08:13:16.768Z,7.90
2018-09-23T08:15:49.412Z,7.00
2018-09-23T08:18:23.222Z,7.27
2018-09-23T08:20:55.886Z,5.90
2018-09-23T08:23:28.443Z,7.37
2018-09-23T08:26:00.892Z,8.03
2018-09-23T08:28:33.281Z,6.03
2018-09-23T08:31:05.736Z,6.30
2018-09-23T08:33:37.986Z,6.23
2018-09-23T08:36:10.599Z,7.57
2018-09-23T08:38:43.007Z,7.03
2018-09-23T08:41:15.482Z,6.83
2018-09-23T08:43:48.098Z,6.53
2018-09-23T08:46:20.478Z,6.30
2018-09-23T08:48:53.173Z,6.63
2018-09-23T08:51:25.893Z,6.73
2018-09-23T08:53:58.588Z,6.97
2018-09-23T08:56:30.955Z,7.10
2018-09-23T08:59:03.438Z,6.40
2018-09-23T09:01:37.901Z,7.60
2018-09-23T09:04:10.575Z,7.43
2018-09-23T09:06:42.973Z,8.00
2018-09-23T09:09:15.427Z,9.07
2018-09-23T09:11:47.895Z,6.63
2018-09-23T09:14:20.540Z,6.60
2018-09-23T09:16:53.057Z,6.77
2018-09-23T09:19:25.769Z,6.90
2018-09-23T09:21:58.444Z,6.27
2018-09-23T09:24:30.943Z,6.43
2018-09-23T09:27:03.373Z,5.93
2018-09-23T09:29:35.821Z,5.53
2018-09-23T09:32:08.477Z,5.90
2018-09-23T09:34:41.031Z,6.67
2018-09-23T09:37:13.423Z,6.43
2018-09-23T09:39:46.012Z,6.30
2018-09-23T09:42:18.448Z,6.10
2018-09-23T09:44:51.199Z,5.83
2018-09-23T09:47:23.826Z,6.00
2018-09-23T09:49:56.196Z,7.00
2018-09-23T09:52:29.200Z,6.40
2018-09-23T09:55:01.692Z,6.70
2018-09-23T09:57:34.511Z,6.97
2018-09-23T10:00:07.626Z,6.90
2018-09-23T10:02:40.075Z,6.00
2018-09-23T10:05:12.563Z,6.13
2018-09-23T10:07:45.220Z,5.20
2018-09-23T10:10:24.367Z,6.47
2018-09-23T10:13:02.650Z,6.70
2018-09-23T10:15:35.121Z,7.23
2018-09-23T10:18:08.715Z,7.97
2018-09-23T10:20:41.326Z,6.50
2018-09-23T10:23:15.231Z,7.27
2018-09-23T10:25:49.427Z,7.17
2018-09-23T10:28:22.005Z,7.27
2018-09-23T10:30:54.523Z,6.90
2018-09-23T10:33:26.915Z,7.57
2018-09-23T10:35:59.587Z,7.67
2018-09-23T10:38:32.128Z,7.50
2018-09-23T10:41:04.437Z,7.00
2018-09-23T10:43:36.849Z,6.50
2018-09-23T10:46:09.617Z,7.57
2018-09-23T10:48:42.246Z,6.30
2018-09-23T10:51:14.801Z,6.10
2018-09-23T10:53:47.274Z,6.13
2018-09-23T10:56:20.353Z,6.70
2018-09-23T10:58:53.247Z,7.73
2018-09-23T11:01:25.741Z,8.80
2018-09-23T11:03:58.383Z,8.93
2018-09-23T11:06:31.112Z,8.30
2018-09-23T11:09:03.525Z,8.80
2018-09-23T11:11:36.162Z,8.13
2018-09-23T11:14:08.717Z,8.10
2018-09-23T11:16:41.289Z,7.00
2018-09-23T11:19:15.520Z,9.23
2018-09-23T11:21:48.103Z,8.67
2018-09-23T11:24:20.796Z,9.87
2018-09-23T11:26:53.327Z,9.48
2018-09-23T11:29:26.238Z,10.80
2018-09-23T11:31:58.846Z,10.87
2018-09-23T11:34:31.266Z,7.97
2018-09-23T11:37:03.766Z,7.37
2018-09-23T11:39:36.678Z,9.00
2018-09-23T11:42:09.104Z,43.93
2018-09-23T11:44:41.805Z,14.10
2018-09-23T11:47:15.833Z,10.17
2018-09-23T11:49:48.432Z,9.93
2018-09-23T11:52:22.473Z,8.77
2018-09-23T11:54:55.222Z,8.47
2018-09-23T11:57:27.663Z,14.00
2018-09-23T12:00:00.156Z,12.03
2018-09-23T12:02:41.835Z,12.53
2018-09-23T12:05:23.865Z,16.63
2018-09-23T12:07:58.938Z,10.00
2018-09-23T12:10:31.886Z,15.33
2018-09-23T12:13:04.589Z,12.13
2018-09-23T12:15:45.038Z,10.60
2018-09-23T12:18:24.781Z,11.53
2018-09-23T12:21:01.727Z,10.40
2018-09-23T12:23:39.993Z,12.03
2018-09-23T12:26:12.480Z,10.43
2018-09-23T12:28:45.310Z,12.27
2018-09-23T12:31:18.267Z,9.03
2018-09-23T12:33:50.643Z,8.87
2018-09-23T12:36:23.346Z,13.43
2018-09-23T12:38:56.380Z,8.83
2018-09-23T12:41:29.018Z,8.50
2018-09-23T12:44:01.426Z,11.50
2018-09-23T12:46:34.909Z,8.20
2018-09-23T12:49:07.328Z,7.57
2018-09-23T12:51:39.905Z,8.30
2018-09-23T12:54:12.454Z,9.08
2018-09-23T12:56:44.972Z,8.03
2018-09-23T12:59:19.060Z,12.10
2018-09-23T13:01:55.545Z,8.37
2018-09-23T13:04:32.383Z,10.23
2018-09-23T13:07:04.958Z,9.03
2018-09-23T13:09:39.663Z,6.93
2018-09-23T13:12:16.105Z,6.60
2018-09-23T13:14:49.684Z,6.10
2018-09-23T13:17:26.349Z,7.23
2018-09-23T13:20:02.946Z,14.33
2018-09-23T13:22:38.395Z,7.43
2018-09-23T13:25:14.520Z,9.47
2018-09-23T13:27:50.895Z,12.33
2018-09-23T13:30:26.960Z,8.57
2018-09-23T13:33:02.681Z,8.10
2018-09-23T13:35:39.656Z,9.43
2018-09-23T13:38:15.221Z,7.27
2018-09-23T13:40:49.634Z,6.00
2018-09-23T13:43:25.904Z,7.60
2018-09-23T13:46:02.343Z,6.77
2018-09-23T13:48:39.854Z,4.40
2018-09-23T13:51:15.748Z,4.50
2018-09-23T13:53:52.178Z,5.30
2018-09-23T13:56:29.409Z,3.70
2018-09-23T13:59:05.655Z,5.60
2018-09-23T14:01:42.436Z,3.20
2018-09-23T14:04:18.814Z,4.70
2018-09-23T14:06:54.961Z,3.07
2018-09-23T14:09:30.398Z,3.50
2018-09-23T14:12:06.978Z,3.47
2018-09-23T14:14:42.630Z,5.57
2018-09-23T14:17:17.589Z,3.17
2018-09-23T14:19:53.815Z,3.30
2018-09-23T14:22:29.647Z,3.00
2018-09-23T14:25:05.947Z,4.30
2018-09-23T14:27:41.343Z,4.30
2018-09-23T14:30:17.860Z,4.97
2018-09-23T14:32:51.613Z,3.40
2018-09-23T14:35:28.335Z,4.27
2018-09-23T14:38:04.849Z,5.97
2018-09-23T14:40:41.159Z,3.90
2018-09-23T14:43:17.738Z,3.93
2018-09-23T14:45:52.483Z,3.30
2018-09-23T14:48:28.929Z,3.20
2018-09-23T14:51:03.799Z,3.50
2018-09-23T14:53:39.504Z,3.10
2018-09-23T14:56:14.779Z,3.47
2018-09-23T14:58:51.629Z,3.07
2018-09-23T15:01:28.031Z,4.97
2018-09-23T15:04:04.125Z,4.77
2018-09-23T15:06:38.721Z,3.33
2018-09-23T15:09:15.578Z,3.60
2018-09-23T15:11:51.864Z,3.70
2018-09-23T15:14:27.744Z,4.10
2018-09-23T15:17:03.723Z,14.10
2018-09-23T15:19:44.407Z,3.60
2018-09-23T15:22:20.290Z,3.70
2018-09-23T15:24:56.337Z,3.17
2018-09-23T15:27:32.614Z,4.80
2018-09-23T15:30:11.171Z,3.50
2018-09-23T15:32:46.782Z,5.33
2018-09-23T15:35:23.671Z,3.87
2018-09-23T15:37:58.661Z,3.60
2018-09-23T15:40:34.330Z,3.70
2018-09-23T15:43:10.917Z,5.50
2018-09-23T15:45:47.402Z,4.30
2018-09-23T15:48:23.820Z,3.17
2018-09-23T15:51:00.072Z,4.70
2018-09-23T15:56:28.686Z,4.33
2018-09-23T15:59:05.012Z,3.50
2018-09-23T16:01:40.618Z,3.33
2018-09-23T16:04:16.689Z,2.33
2018-09-23T16:06:53.401Z,5.57
2018-09-23T16:09:27.974Z,4.37
2018-09-23T16:12:03.698Z,3.27
2018-09-23T16:14:38.311Z,3.67
2018-09-23T16:17:15.051Z,4.53
2018-09-23T16:19:51.095Z,2.27
2018-09-23T16:22:27.252Z,3.03
2018-09-23T16:25:03.669Z,3.60
2018-09-23T16:27:39.658Z,3.87
2018-09-23T16:30:11.656Z,3.10
2018-09-23T16:32:44.396Z,2.60
2018-09-23T16:35:18.266Z,3.00
2018-09-23T16:37:51.273Z,3.43
2018-09-23T16:40:24.299Z,3.07
2018-09-23T16:42:57.270Z,2.53
2018-09-23T16:45:34.622Z,3.80
2018-09-23T16:48:07.995Z,3.30
2018-09-23T16:50:41.201Z,4.57
2018-09-23T16:53:14.402Z,13.10
2018-09-23T16:55:46.992Z,8.30
2018-09-23T16:58:20.567Z,4.77
2018-09-23T17:00:53.806Z,3.20
2018-09-23T17:03:26.512Z,3.87
2018-09-23T17:06:00.131Z,3.63
2018-09-23T17:08:33.090Z,3.87
2018-09-23T17:11:06.275Z,3.37
2018-09-23T17:13:39.269Z,3.23
2018-09-23T17:16:11.921Z,3.77
2018-09-23T17:18:44.658Z,3.80
2018-09-23T17:21:17.345Z,4.60
2018-09-23T17:23:49.929Z,4.53
2018-09-23T17:26:23.039Z,3.60
2018-09-23T17:28:55.980Z,2.70
2018-09-23T17:31:28.753Z,3.90
2018-09-23T17:34:04.178Z,5.00
2018-09-23T17:36:37.173Z,4.53
2018-09-23T17:39:13.048Z,4.37
2018-09-23T17:41:53.095Z,3.00
2018-09-23T17:44:29.861Z,3.70
2018-09-23T17:47:04.852Z,3.63
2018-09-23T17:49:37.859Z,3.47
2018-09-23T17:52:10.627Z,4.67
2018-09-23T17:54:48.241Z,1.97
2018-09-23T17:57:21.327Z,3.80
2018-09-23T17:59:54.401Z,4.13
2018-09-23T18:02:30.037Z,3.27
2018-09-23T18:05:04.560Z,2.65
2018-09-23T18:07:37.615Z,2.63
2018-09-23T18:10:16.257Z,3.20
2018-09-23T18:12:52.941Z,6.33
2018-09-23T18:15:35.875Z,2.90
2018-09-23T18:18:11.300Z,3.73
2018-09-23T18:20:46.242Z,2.63
2018-09-23T18:23:20.673Z,2.43
2018-09-23T18:25:58.541Z,4.20
2018-09-23T18:28:36.674Z,3.10
2018-09-23T18:31:09.711Z,4.57
2018-09-23T18:33:43.623Z,7.03
2018-09-23T18:36:23.660Z,4.63
2018-09-23T18:38:58.630Z,4.17
2018-09-23T18:41:42.600Z,2.60
2018-09-23T18:44:31.703Z,2.17
2018-09-23T18:47:04.677Z,2.90
2018-09-23T18:49:37.846Z,2.27
2018-09-23T18:52:12.080Z,5.60
2018-09-23T18:54:50.187Z,1.90
2018-09-23T18:57:23.688Z,2.73
2018-09-23T18:59:58.118Z,2.83
2018-09-23T19:02:31.494Z,5.67
2018-09-23T19:05:04.131Z,4.03
2018-09-23T19:07:38.576Z,3.50
2018-09-23T19:10:10.873Z,2.13
2018-09-23T19:12:46.768Z,2.30
2018-09-23T19:15:19.647Z,2.53
2018-09-23T19:17:53.453Z,3.47
2018-09-23T19:20:26.219Z,3.10
2018-09-23T19:23:03.111Z,3.07
2018-09-23T19:25:36.076Z,3.75
2018-09-23T19:28:08.960Z,3.30
2018-09-23T19:30:41.477Z,3.57
2018-09-23T19:33:14.097Z,3.03
2018-09-23T19:35:46.681Z,4.33
2018-09-23T19:38:19.250Z,4.30
2018-09-23T19:40:51.785Z,7.37
2018-09-23T19:43:24.399Z,3.17
2018-09-23T19:45:56.915Z,4.10
2018-09-23T19:48:32.038Z,3.60
2018-09-23T19:51:04.779Z,3.90
2018-09-23T19:53:37.487Z,7.20
2018-09-23T19:56:09.971Z,4.20
2018-09-23T19:58:45.052Z,4.50
2018-09-23T20:01:17.977Z,4.27
2018-09-23T20:03:50.920Z,3.33
2018-09-23T20:06:24.414Z,2.80
2018-09-23T20:08:57.127Z,2.30
2018-09-23T20:11:30.683Z,3.37
2018-09-23T20:14:03.433Z,2.70
2018-09-23T20:16:35.995Z,3.93
2018-09-23T20:19:10.001Z,4.97
2018-09-23T20:21:42.638Z,3.13
2018-09-23T20:24:16.427Z,2.93
2018-09-23T20:28:12.363Z,6.67
2018-09-23T20:30:44.946Z,2.80
2018-09-23T20:33:17.563Z,8.80
2018-09-23T20:35:50.714Z,7.60
2018-09-23T20:38:23.339Z,3.30
2018-09-23T20:40:55.983Z,3.20
2018-09-23T20:43:28.595Z,3.03
2018-09-23T20:46:01.151Z,5.13
2018-09-23T20:48:33.974Z,3.03
2018-09-23T20:51:06.670Z,4.03
2018-09-23T20:53:39.489Z,3.83
2018-09-23T20:56:12.277Z,2.10
2018-09-23T20:58:44.937Z,4.93
2018-09-23T21:01:17.781Z,3.60
2018-09-23T21:03:50.507Z,2.77
2018-09-23T21:06:23.165Z,3.20
2018-09-23T21:08:55.887Z,3.87
2018-09-23T21:11:28.551Z,3.70
2018-09-23T21:14:01.317Z,3.10
2018-09-23T21:16:33.837Z,2.87
2018-09-23T21:19:07.359Z,3.20
2018-09-23T21:21:40.490Z,5.20
2018-09-23T21:24:13.799Z,6.03
2018-09-23T21:26:46.370Z,2.57
2018-09-23T21:29:19.092Z,4.07
2018-09-23T21:31:51.850Z,2.40
2018-09-23T21:34:24.564Z,2.57
2018-09-23T21:36:58.054Z,4.33
2018-09-23T21:39:30.781Z,3.53
2018-09-23T21:42:03.515Z,2.40
2018-09-23T21:44:36.165Z,5.93
2018-09-23T21:47:09.186Z,10.50
2018-09-23T21:49:44.428Z,3.23
2018-09-23T21:52:17.331Z,4.10
2018-09-23T21:54:49.956Z,3.83
2018-09-23T21:57:23.219Z,5.17
2018-09-23T21:59:56.603Z,4.20
2018-09-23T22:02:29.783Z,4.20
2018-09-23T22:05:02.434Z,5.92
2018-09-23T22:07:35.404Z,7.57
2018-09-23T22:10:10.380Z,3.83
2018-09-23T22:12:42.969Z,4.97
2018-09-23T22:15:22.392Z,5.10
2018-09-23T22:17:55.666Z,4.23
2018-09-23T22:20:28.611Z,4.20
2018-09-23T22:23:01.457Z,3.10
2018-09-23T22:25:34.023Z,2.67
2018-09-23T22:28:07.853Z,3.73
2018-09-23T22:30:40.806Z,16.90
2018-09-23T22:33:13.550Z,3.70
2018-09-23T22:35:46.549Z,2.43
2018-09-23T22:38:19.174Z,2.80
2018-09-23T22:40:53.914Z,3.03
2018-09-23T22:43:27.359Z,4.30
2018-09-23T22:46:00.374Z,7.10
2018-09-23T22:48:40.520Z,6.60
2018-09-23T22:51:13.505Z,3.37
2018-09-23T22:53:51.525Z,5.00
2018-09-23T22:56:24.452Z,5.20
2018-09-23T22:58:58.730Z,5.33
2018-09-23T23:01:34.807Z,5.50
2018-09-23T23:04:07.702Z,4.37
2018-09-23T23:06:41.788Z,4.97
2018-09-23T23:09:14.828Z,5.10
2018-09-23T23:11:49.465Z,3.57
2018-09-23T23:14:24.192Z,5.10
2018-09-23T23:16:57.405Z,3.80
2018-09-23T23:19:30.376Z,4.10
2018-09-23T23:22:04.189Z,5.30
2018-09-23T23:24:43.237Z,3.93
2018-09-23T23:27:20.653Z,4.83
2018-09-23T23:29:53.559Z,8.00
2018-09-23T23:32:26.238Z,4.93
2018-09-23T23:34:59.107Z,4.57
2018-09-23T23:37:31.798Z,4.13
2018-09-23T23:40:04.942Z,3.53
2018-09-23T23:42:37.608Z,3.53
2018-09-23T23:45:10.113Z,2.73
2018-09-23T23:47:43.715Z,3.67
2018-09-23T23:50:16.342Z,3.50
2018-09-23T23:52:49.259Z,4.50
2018-09-23T23:55:28.252Z,7.47
2018-09-23T23:58:13.165Z,4.20
